La Blanca, Texas
Current Conditions -  °F | °C
As of 11:15 AM on Sunday 21 Dec 2014 (Local Time) from KT65 Reporting Station
Haze Haze  
Wind Chill: 58°   Ceiling: 700
Heat Index: 58°   Visibility: 3mi
Dew Point: 55°   Wind: 7mph
Humidity: 90%   Direction: 330°NNW
Pressure: 30.08"   Gusts: NA
Location:  26.29°N, 98.04°W
Report Text: KT65 211715Z AUTO 33006KT 3SM BR OVC007 14/13 A3008 RMK AO2 T01420125
Loading
Personal Weather Stations






























Interactive Weather Map New forecast layout! Learn more

10-Day Weather Forecast

Advertisements
Track Severe Weather on mobile